Wetterdaten: Woche 29.11.10 - 05.12.10 (KW48)
Datum Zeit Temperatur Luftfeuchte Luftdruck Niederschlag Wind Richtung Sonnenschein Solar Taupunkt Windchill Windben
29.11.2010 00:00 -1.3 C 97 % 1002.0 hPa 0.0 l/m 0.9 km/h (0 Bft) S-SO 0.00 h 0 W/m -1.7 C -1.3 C 2.1 km/h (1 Bft)
29.11.2010 01:00 -1.3 C 97 % 1001.8 hPa 0.4 l/m 0.2 km/h (0 Bft) S-SO 0.00 h 0 W/m -1.7 C -1.3 C 0.7 km/h (0 Bft)
29.11.2010 02:00 -1.0 C 97 % 1001.9 hPa 0.2 l/m 1.3 km/h (1 Bft) S-SO 0.00 h 0 W/m -1.5 C -1.1 C 2.9 km/h (1 Bft)
29.11.2010 03:00 -1.0 C 97 % 1001.9 hPa 0.2 l/m 1.2 km/h (1 Bft) S-SO 0.00 h 0 W/m -1.4 C -1.0 C 2.5 km/h (1 Bft)
29.11.2010 04:00 -0.8 C 97 % 1002.3 hPa 0.0 l/m 0.3 km/h (0 Bft) S-SO 0.00 h 0 W/m -1.2 C -0.8 C 1.8 km/h (1 Bft)
29.11.2010 05:00 -0.6 C 97 % 1002.9 hPa 0.0 l/m 1.3 km/h (1 Bft) SW 0.00 h 0 W/m -1.1 C -0.7 C 3.3 km/h (1 Bft)
29.11.2010 06:00 -0.4 C 97 % 1003.3 hPa 0.0 l/m 3.0 km/h (1 Bft) W 0.00 h 0 W/m -0.8 C -0.8 C 5.5 km/h (1 Bft)
29.11.2010 07:00 -0.3 C 96 % 1003.9 hPa 0.0 l/m 0.5 km/h (0 Bft) S-SW 0.00 h 0 W/m -0.9 C -0.3 C 1.7 km/h (1 Bft)
29.11.2010 08:00 -0.1 C 96 % 1004.6 hPa 0.2 l/m 3.7 km/h (1 Bft) SW 0.00 h 6 W/m -0.6 C -0.8 C 6.0 km/h (2 Bft)
29.11.2010 09:00 0.6 C 97 % 1005.6 hPa 0.0 l/m 7.6 km/h (2 Bft) W 0.00 h 21 W/m 0.1 C -1.8 C 12.0 km/h (2 Bft)
29.11.2010 10:00 0.8 C 94 % 1006.2 hPa 0.0 l/m 10.9 km/h (2 Bft) W 0.00 h 57 W/m -0.0 C -2.5 C 16.2 km/h (3 Bft)
29.11.2010 11:00 0.9 C 92 % 1006.6 hPa 0.0 l/m 11.4 km/h (2 Bft) W 0.00 h 109 W/m -0.2 C -2.4 C 17.3 km/h (3 Bft)
29.11.2010 12:00 1.0 C 92 % 1007.1 hPa 0.0 l/m 9.7 km/h (2 Bft) W 0.00 h 125 W/m -0.2 C -2.0 C 14.7 km/h (3 Bft)
29.11.2010 13:00 1.2 C 90 % 1007.5 hPa 0.0 l/m 7.4 km/h (2 Bft) W-NW 0.08 h 143 W/m -0.3 C -1.0 C 11.2 km/h (2 Bft)
29.11.2010 14:00 1.7 C 84 % 1007.6 hPa 0.0 l/m 8.1 km/h (2 Bft) W 0.73 h 212 W/m -0.7 C -0.6 C 12.3 km/h (3 Bft)
29.11.2010 15:00 1.7 C 81 % 1007.8 hPa 0.0 l/m 9.6 km/h (2 Bft) W-NW 0.90 h 117 W/m -1.3 C -1.1 C 14.8 km/h (3 Bft)
29.11.2010 16:00 0.7 C 84 % 1008.5 hPa 0.0 l/m 8.5 km/h (2 Bft) W-NW 0.32 h 21 W/m -1.6 C -2.0 C 12.9 km/h (3 Bft)
29.11.2010 17:00 -0.6 C 88 % 1009.2 hPa 0.0 l/m 2.6 km/h (1 Bft) W 0.00 h 0 W/m -2.4 C -0.9 C 4.9 km/h (1 Bft)
29.11.2010 18:00 -2.4 C 89 % 1010.1 hPa 0.0 l/m 3.2 km/h (1 Bft) O-SO 0.00 h 0 W/m -3.9 C -3.1 C 4.5 km/h (1 Bft)
29.11.2010 19:00 -2.8 C 92 % 1010.7 hPa 0.0 l/m 2.8 km/h (1 Bft) S-SO 0.00 h 0 W/m -3.9 C -3.3 C 4.3 km/h (1 Bft)
29.11.2010 20:00 -3.6 C 93 % 1011.3 hPa 0.0 l/m 1.8 km/h (1 Bft) O-SO 0.00 h 0 W/m -4.6 C -3.8 C 3.1 km/h (1 Bft)
29.11.2010 21:00 -4.6 C 92 % 1011.8 hPa 0.0 l/m 4.2 km/h (1 Bft) O-SO 0.00 h 0 W/m -5.7 C -5.9 C 5.6 km/h (1 Bft)
29.11.2010 22:00 -5.9 C 93 % 1012.6 hPa 0.0 l/m 5.3 km/h (1 Bft) O-SO 0.00 h 0 W/m -6.9 C -7.7 C 6.9 km/h (2 Bft)
29.11.2010 23:00 -6.5 C 93 % 1012.8 hPa 0.0 l/m 1.1 km/h (0 Bft) O-SO 0.00 h 0 W/m -7.4 C -6.5 C 1.8 km/h (1 Bft)
30.11.2010 00:00 -6.7 C 94 % 1013.1 hPa 0.0 l/m 1.8 km/h (1 Bft) O-SO 0.00 h 0 W/m -7.5 C -6.8 C 2.6 km/h (1 Bft)
30.11.2010 01:00 -7.5 C 94 % 1013.0 hPa 0.0 l/m 3.5 km/h (1 Bft) SO 0.00 h 0 W/m -8.2 C -8.3 C 4.5 km/h (1 Bft)
30.11.2010 02:00 -7.8 C 94 % 1012.8 hPa 0.0 l/m 1.3 km/h (1 Bft) O 0.00 h 0 W/m -8.6 C -7.8 C 2.3 km/h (1 Bft)
30.11.2010 03:00 -8.0 C 95 % 1012.7 hPa 0.0 l/m 1.9 km/h (1 Bft) O 0.00 h 0 W/m -8.7 C -8.0 C 3.0 km/h (1 Bft)
30.11.2010 04:00 -8.1 C 94 % 1012.6 hPa 0.0 l/m 1.4 km/h (1 Bft) O 0.00 h 0 W/m -8.9 C -8.1 C 2.3 km/h (1 Bft)
30.11.2010 05:00 -8.8 C 94 % 1012.4 hPa 0.0 l/m 2.1 km/h (1 Bft) O 0.00 h 0 W/m -9.6 C -8.8 C 3.3 km/h (1 Bft)
30.11.2010 06:00 -8.8 C 95 % 1012.1 hPa 0.0 l/m 0.3 km/h (0 Bft) O 0.00 h 0 W/m -9.5 C -8.8 C 0.5 km/h (0 Bft)
30.11.2010 07:00 -8.7 C 94 % 1012.5 hPa 0.0 l/m 0.4 km/h (0 Bft) O 0.00 h 5 W/m -9.4 C -8.7 C 0.9 km/h (0 Bft)
30.11.2010 08:00 -7.7 C 95 % 1012.1 hPa 0.0 l/m 1.0 km/h (0 Bft) N 0.00 h 21 W/m -8.3 C -7.7 C 2.5 km/h (1 Bft)
30.11.2010 09:00 -6.7 C 95 % 1011.7 hPa 0.0 l/m 0.1 km/h (0 Bft) N 0.23 h 81 W/m -7.4 C -6.7 C 0.5 km/h (0 Bft)
30.11.2010 10:00 -5.6 C 94 % 1011.1 hPa 0.0 l/m 1.0 km/h (0 Bft) W 0.05 h 116 W/m -6.4 C -5.6 C 2.3 km/h (1 Bft)
30.11.2010 11:00 -3.6 C 93 % 1009.8 hPa 0.0 l/m 0.2 km/h (0 Bft) SO 0.97 h 281 W/m -4.5 C -3.6 C 0.9 km/h (0 Bft)
30.11.2010 12:00 -1.9 C 88 % 1008.7 hPa 0.0 l/m 1.0 km/h (0 Bft) SO 0.73 h 263 W/m -3.6 C -2.1 C 2.4 km/h (1 Bft)
30.11.2010 13:00 -1.4 C 84 % 1007.7 hPa 0.0 l/m 4.7 km/h (1 Bft) O-SO 0.50 h 182 W/m -3.7 C -2.7 C 7.2 km/h (2 Bft)
30.11.2010 14:00 -1.1 C 82 % 1006.9 hPa 0.0 l/m 5.3 km/h (1 Bft) O-SO 0.13 h 120 W/m -3.8 C -2.7 C 8.3 km/h (2 Bft)
30.11.2010 15:00 -1.1 C 79 % 1006.4 hPa 0.0 l/m 5.5 km/h (1 Bft) O-SO 0.10 h 64 W/m -4.2 C -2.7 C 8.2 km/h (2 Bft)
30.11.2010 16:00 -1.4 C 80 % 1006.0 hPa 0.0 l/m 5.2 km/h (1 Bft) O-SO 0.00 h 12 W/m -4.4 C -2.9 C 7.7 km/h (2 Bft)
30.11.2010 17:00 -1.3 C 78 % 1005.3 hPa 0.0 l/m 3.0 km/h (1 Bft) O-SO 0.00 h 0 W/m -4.6 C -1.8 C 5.9 km/h (2 Bft)
30.11.2010 18:00 -1.4 C 79 % 1004.8 hPa 0.0 l/m 1.5 km/h (1 Bft) O-SO 0.00 h 0 W/m -4.6 C -1.5 C 3.5 km/h (1 Bft)
30.11.2010 19:00 -1.6 C 81 % 1004.4 hPa 0.0 l/m 1.1 km/h (0 Bft) O-SO 0.00 h 0 W/m -4.4 C -1.6 C 3.0 km/h (1 Bft)
30.11.2010 20:00 -1.7 C 83 % 1004.2 hPa 0.0 l/m 1.3 km/h (1 Bft) O 0.00 h 0 W/m -4.3 C -1.8 C 3.3 km/h (1 Bft)
30.11.2010 21:00 -1.8 C 84 % 1003.9 hPa 0.0 l/m 0.8 km/h (0 Bft) O 0.00 h 0 W/m -4.2 C -1.9 C 2.2 km/h (1 Bft)
30.11.2010 22:00 -2.0 C 85 % 1003.3 hPa 0.0 l/m 1.9 km/h (1 Bft) O-SO 0.00 h 0 W/m -4.2 C -2.3 C 4.1 km/h (1 Bft)
30.11.2010 23:00 -2.1 C 85 % 1002.9 hPa 0.0 l/m 0.6 km/h (0 Bft) O-SO 0.00 h 0 W/m -4.2 C -2.1 C 2.0 km/h (1 Bft)
01.12.2010 00:00 -2.0 C 86 % 1002.5 hPa 0.0 l/m 0.7 km/h (0 Bft) SO 0.00 h 0 W/m -4.1 C -2.0 C 2.0 km/h (1 Bft)
01.12.2010 01:00 -2.0 C 86 % 1001.5 hPa 0.0 l/m 0.9 km/h (0 Bft) NO 0.00 h 0 W/m -4.0 C -2.1 C 2.6 km/h (1 Bft)
01.12.2010 02:00 -1.9 C 86 % 1000.9 hPa 0.0 l/m 1.6 km/h (1 Bft) O 0.00 h 0 W/m -4.0 C -2.1 C 3.9 km/h (1 Bft)
01.12.2010 03:00 -1.9 C 87 % 1000.1 hPa 0.0 l/m 1.6 km/h (1 Bft) O 0.00 h 0 W/m -3.8 C -2.1 C 3.5 km/h (1 Bft)
01.12.2010 04:00 -2.0 C 87 % 999.5 hPa 0.0 l/m 2.8 km/h (1 Bft) O 0.00 h 0 W/m -3.8 C -2.5 C 6.0 km/h (2 Bft)
01.12.2010 05:00 -1.8 C 88 % 999.1 hPa 0.0 l/m 2.9 km/h (1 Bft) O-SO 0.00 h 0 W/m -3.6 C -2.4 C 6.1 km/h (2 Bft)
01.12.2010 06:00 -1.8 C 87 % 998.1 hPa 0.0 l/m 3.0 km/h (1 Bft) O 0.00 h 0 W/m -3.6 C -2.4 C 6.4 km/h (2 Bft)
01.12.2010 07:00 -2.0 C 88 % 998.1 hPa 0.0 l/m 2.7 km/h (1 Bft) N 0.00 h 0 W/m -3.7 C -2.4 C 6.4 km/h (2 Bft)
01.12.2010 08:00 -2.1 C 88 % 998.0 hPa 0.0 l/m 2.2 km/h (1 Bft) N-NO 0.00 h 13 W/m -3.8 C -2.5 C 5.0 km/h (1 Bft)
01.12.2010 09:00 -1.9 C 87 % 997.7 hPa 0.0 l/m 2.8 km/h (1 Bft) N-NO 0.00 h 37 W/m -3.8 C -2.4 C 6.1 km/h (2 Bft)
01.12.2010 10:00 -1.7 C 86 % 998.1 hPa 0.0 l/m 3.0 km/h (1 Bft) O-SO 0.00 h 77 W/m -3.8 C -2.5 C 5.5 km/h (1 Bft)
01.12.2010 11:00 -1.6 C 85 % 997.9 hPa 0.0 l/m 2.5 km/h (1 Bft) O 0.00 h 87 W/m -3.8 C -2.0 C 5.2 km/h (1 Bft)
01.12.2010 12:00 -1.3 C 84 % 997.0 hPa 0.0 l/m 2.3 km/h (1 Bft) O-SO 0.00 h 101 W/m -3.7 C -1.7 C 5.0 km/h (1 Bft)
01.12.2010 13:00 -1.2 C 83 % 996.6 hPa 0.0 l/m 0.4 km/h (0 Bft) O-NO 0.00 h 73 W/m -3.7 C -1.2 C 1.8 km/h (1 Bft)
01.12.2010 14:00 -1.2 C 85 % 996.6 hPa 0.0 l/m 0.7 km/h (0 Bft) O-NO 0.00 h 29 W/m -3.4 C -1.2 C 1.9 km/h (1 Bft)
01.12.2010 15:00 -1.3 C 87 % 997.1 hPa 0.0 l/m 0.7 km/h (0 Bft) O-NO 0.00 h 14 W/m -3.1 C -1.3 C 1.4 km/h (1 Bft)
01.12.2010 16:00 -1.7 C 92 % 997.6 hPa 0.4 l/m 0.0 km/h (0 Bft) N 0.00 h 0 W/m -2.8 C -1.7 C 0.1 km/h (0 Bft)
01.12.2010 17:00 -1.9 C 93 % 998.4 hPa 0.6 l/m 0.0 km/h (0 Bft) N 0.00 h 0 W/m -2.8 C -1.9 C 0.0 km/h (0 Bft)
01.12.2010 18:00 -2.0 C 95 % 999.4 hPa 0.6 l/m 0.0 km/h (0 Bft) N 0.00 h 0 W/m -2.7 C -2.0 C 0.0 km/h (0 Bft)
01.12.2010 19:00 -2.0 C 95 % 1000.2 hPa 0.6 l/m 0.0 km/h (0 Bft) N 0.00 h 0 W/m -2.6 C -2.0 C 0.0 km/h (0 Bft)
01.12.2010 20:00 -1.9 C 96 % 1001.3 hPa 0.6 l/m 0.5 km/h (0 Bft) W 0.00 h 0 W/m -2.5 C -2.1 C 1.0 km/h (0 Bft)
01.12.2010 21:00 -2.0 C 95 % 1002.2 hPa 0.2 l/m 2.5 km/h (1 Bft) W-SW 0.00 h 0 W/m -2.7 C -2.3 C 5.0 km/h (1 Bft)
01.12.2010 22:00 -1.9 C 95 % 1003.2 hPa 0.2 l/m 3.2 km/h (1 Bft) W 0.00 h 0 W/m -2.6 C -2.2 C 6.0 km/h (2 Bft)
01.12.2010 23:00 -1.6 C 94 % 1004.0 hPa 0.2 l/m 4.4 km/h (1 Bft) W 0.00 h 0 W/m -2.4 C -2.5 C 7.4 km/h (2 Bft)
02.12.2010 00:00 -1.2 C 93 % 1004.6 hPa 0.0 l/m 6.8 km/h (2 Bft) W-NW 0.00 h 0 W/m -2.2 C -3.5 C 11.0 km/h (2 Bft)
02.12.2010 01:00 -0.9 C 92 % 1004.6 hPa 0.2 l/m 12.2 km/h (2 Bft) W-NW 0.00 h 0 W/m -2.0 C -4.9 C 18.2 km/h (3 Bft)
02.12.2010 02:00 -0.8 C 91 % 1005.1 hPa 0.0 l/m 9.4 km/h (2 Bft) W 0.00 h 0 W/m -2.0 C -4.0 C 14.7 km/h (3 Bft)
02.12.2010 03:00 -0.8 C 91 % 1005.5 hPa 0.0 l/m 8.5 km/h (2 Bft) W-NW 0.00 h 0 W/m -2.2 C -3.8 C 13.0 km/h (3 Bft)
02.12.2010 04:00 -0.9 C 88 % 1005.8 hPa 0.0 l/m 7.6 km/h (2 Bft) W 0.00 h 0 W/m -2.5 C -3.4 C 11.6 km/h (2 Bft)
02.12.2010 05:00 -1.0 C 88 % 1006.3 hPa 0.0 l/m 7.0 km/h (2 Bft) W 0.00 h 0 W/m -2.7 C -3.4 C 11.7 km/h (2 Bft)
02.12.2010 06:00 -1.1 C 87 % 1006.8 hPa 0.2 l/m 8.1 km/h (2 Bft) W 0.00 h 0 W/m -3.1 C -4.0 C 12.3 km/h (3 Bft)
02.12.2010 07:00 -1.2 C 84 % 1007.3 hPa 0.0 l/m 10.3 km/h (2 Bft) W-NW 0.00 h 0 W/m -3.5 C -4.7 C 15.4 km/h (3 Bft)
02.12.2010 08:00 -1.3 C 82 % 1007.9 hPa 0.0 l/m 11.6 km/h (2 Bft) W-NW 0.00 h 15 W/m -4.0 C -5.2 C 17.2 km/h (3 Bft)
02.12.2010 09:00 -1.5 C 77 % 1008.4 hPa 0.0 l/m 10.0 km/h (2 Bft) W-NW 0.00 h 50 W/m -5.0 C -5.1 C 15.1 km/h (3 Bft)
02.12.2010 10:00 -1.9 C 78 % 1008.6 hPa 0.0 l/m 6.2 km/h (2 Bft) W 0.00 h 90 W/m -5.3 C -4.0 C 9.7 km/h (2 Bft)
02.12.2010 11:00 -1.5 C 77 % 1008.8 hPa 0.0 l/m 4.4 km/h (1 Bft) W-SW 0.18 h 152 W/m -4.9 C -2.6 C 6.8 km/h (2 Bft)
02.12.2010 12:00 -1.2 C 78 % 1008.6 hPa 0.0 l/m 4.7 km/h (1 Bft) W-SW 0.00 h 131 W/m -4.5 C -2.2 C 7.3 km/h (2 Bft)
02.12.2010 13:00 -0.9 C 76 % 1008.4 hPa 0.0 l/m 3.0 km/h (1 Bft) W-NW 0.18 h 147 W/m -4.5 C -1.4 C 5.2 km/h (1 Bft)
02.12.2010 14:00 -0.6 C 76 % 1007.9 hPa 0.0 l/m 0.8 km/h (0 Bft) W-NW 0.88 h 176 W/m -4.3 C -0.6 C 1.9 km/h (1 Bft)
02.12.2010 15:00 -2.3 C 80 % 1008.2 hPa 0.0 l/m 4.7 km/h (1 Bft) O-SO 1.00 h 96 W/m -5.3 C -3.7 C 6.1 km/h (2 Bft)
02.12.2010 16:00 -2.8 C 83 % 1008.6 hPa 0.0 l/m 2.2 km/h (1 Bft) SO 0.43 h 24 W/m -5.2 C -2.8 C 3.3 km/h (1 Bft)
02.12.2010 17:00 -4.3 C 84 % 1008.7 hPa 0.0 l/m 5.2 km/h (1 Bft) O-SO 0.00 h 0 W/m -6.6 C -6.2 C 6.5 km/h (2 Bft)
02.12.2010 18:00 -6.4 C 88 % 1009.3 hPa 0.0 l/m 4.3 km/h (1 Bft) O-SO 0.00 h 0 W/m -8.0 C -8.0 C 5.6 km/h (1 Bft)
02.12.2010 19:00 -7.2 C 91 % 1009.5 hPa 0.0 l/m 3.4 km/h (1 Bft) O-SO 0.00 h 0 W/m -8.4 C -8.2 C 4.2 km/h (1 Bft)
02.12.2010 20:00 -7.8 C 92 % 1009.9 hPa 0.0 l/m 3.6 km/h (1 Bft) O-SO 0.00 h 0 W/m -9.0 C -9.3 C 4.8 km/h (1 Bft)
02.12.2010 21:00 -8.6 C 92 % 1010.2 hPa 0.0 l/m 3.0 km/h (1 Bft) O-SO 0.00 h 0 W/m -9.6 C -9.3 C 4.0 km/h (1 Bft)
02.12.2010 22:00 -9.1 C 93 % 1010.3 hPa 0.0 l/m 2.2 km/h (1 Bft) O-SO 0.00 h 0 W/m -10.0 C -9.9 C 3.0 km/h (1 Bft)
02.12.2010 23:00 -9.4 C 93 % 1010.3 hPa 0.0 l/m 4.8 km/h (1 Bft) O-SO 0.00 h 0 W/m -10.3 C -11.5 C 6.2 km/h (2 Bft)
03.12.2010 00:00 -8.8 C 93 % 1010.2 hPa 0.0 l/m 1.4 km/h (1 Bft) O-SO 0.00 h 0 W/m -9.8 C -9.3 C 2.3 km/h (1 Bft)
03.12.2010 01:00 -8.2 C 94 % 1010.1 hPa 0.0 l/m 0.8 km/h (0 Bft) O 0.00 h 0 W/m -9.0 C -8.3 C 1.5 km/h (1 Bft)
03.12.2010 02:00 -7.0 C 95 % 1010.0 hPa 0.0 l/m 0.1 km/h (0 Bft) O 0.00 h 0 W/m -7.7 C -7.0 C 0.3 km/h (0 Bft)
03.12.2010 03:00 -6.3 C 95 % 1010.1 hPa 0.0 l/m 0.3 km/h (0 Bft) O 0.00 h 0 W/m -7.0 C -6.3 C 1.1 km/h (0 Bft)
03.12.2010 04:00 -6.0 C 94 % 1009.9 hPa 0.0 l/m 0.2 km/h (0 Bft) O 0.00 h 0 W/m -6.8 C -6.0 C 0.5 km/h (0 Bft)
03.12.2010 05:00 -5.7 C 94 % 1009.8 hPa 0.0 l/m 0.0 km/h (0 Bft) N 0.00 h 0 W/m -6.5 C -5.7 C 0.2 km/h (0 Bft)
03.12.2010 06:00 -5.4 C 94 % 1009.9 hPa 0.0 l/m 0.0 km/h (0 Bft) N 0.00 h 0 W/m -6.2 C -5.4 C 0.2 km/h (0 Bft)
03.12.2010 07:00 -5.0 C 94 % 1010.0 hPa 0.0 l/m 0.1 km/h (0 Bft) O 0.00 h 0 W/m -5.8 C -5.0 C 0.3 km/h (0 Bft)
03.12.2010 08:00 -4.5 C 94 % 1010.1 hPa 0.0 l/m 0.9 km/h (0 Bft) O 0.00 h 15 W/m -5.3 C -4.5 C 2.1 km/h (1 Bft)
03.12.2010 09:00 -4.1 C 94 % 1010.4 hPa 0.0 l/m 3.9 km/h (1 Bft) O-SO 0.00 h 48 W/m -5.0 C -4.9 C 6.0 km/h (2 Bft)
03.12.2010 10:00 -4.0 C 93 % 1010.6 hPa 0.0 l/m 1.9 km/h (1 Bft) O-SO 0.00 h 58 W/m -4.9 C -4.2 C 4.0 km/h (1 Bft)
03.12.2010 11:00 -3.9 C 92 % 1010.5 hPa 0.0 l/m 3.1 km/h (1 Bft) O-SO 0.00 h 77 W/m -5.0 C -4.8 C 5.5 km/h (1 Bft)
03.12.2010 12:00 -3.6 C 91 % 1010.2 hPa 0.0 l/m 2.4 km/h (1 Bft) O-SO 0.00 h 125 W/m -4.9 C -4.2 C 4.5 km/h (1 Bft)
03.12.2010 13:00 -3.3 C 90 % 1010.1 hPa 0.0 l/m 1.6 km/h (1 Bft) SO 0.00 h 61 W/m -4.7 C -3.6 C 3.2 km/h (1 Bft)
03.12.2010 14:00 -3.1 C 89 % 1010.3 hPa 0.0 l/m 0.6 km/h (0 Bft) O-SO 0.00 h 85 W/m -4.7 C -3.2 C 2.0 km/h (1 Bft)
03.12.2010 15:00 -2.7 C 88 % 1011.0 hPa 0.0 l/m 0.6 km/h (0 Bft) O-SO 0.00 h 35 W/m -4.5 C -2.7 C 1.4 km/h (1 Bft)
03.12.2010 16:00 -2.7 C 89 % 1011.8 hPa 0.0 l/m 0.9 km/h (0 Bft) N 0.00 h 11 W/m -4.3 C -2.7 C 1.9 km/h (1 Bft)
03.12.2010 17:00 -2.9 C 89 % 1012.9 hPa 0.0 l/m 0.2 km/h (0 Bft) N 0.00 h 0 W/m -4.5 C -2.9 C 0.5 km/h (0 Bft)
03.12.2010 18:00 -2.9 C 90 % 1013.8 hPa 0.0 l/m 1.2 km/h (1 Bft) W-NW 0.00 h 0 W/m -4.3 C -2.9 C 3.1 km/h (1 Bft)
03.12.2010 19:00 -3.0 C 90 % 1014.7 hPa 0.0 l/m 2.5 km/h (1 Bft) W-NW 0.00 h 0 W/m -4.4 C -3.3 C 4.6 km/h (1 Bft)
03.12.2010 20:00 -3.0 C 89 % 1015.5 hPa 0.0 l/m 2.7 km/h (1 Bft) W-NW 0.00 h 0 W/m -4.5 C -3.3 C 4.8 km/h (1 Bft)
03.12.2010 21:00 -2.8 C 88 % 1016.4 hPa 0.0 l/m 4.3 km/h (1 Bft) W-SW 0.00 h 0 W/m -4.5 C -3.9 C 6.9 km/h (2 Bft)
03.12.2010 22:00 -2.9 C 89 % 1016.8 hPa 0.0 l/m 1.0 km/h (0 Bft) SW 0.00 h 0 W/m -4.5 C -2.9 C 3.0 km/h (1 Bft)
03.12.2010 23:00 -3.0 C 90 % 1017.4 hPa 0.0 l/m 2.2 km/h (1 Bft) S-SO 0.00 h 0 W/m -4.5 C -3.3 C 4.3 km/h (1 Bft)
04.12.2010 00:00 -3.5 C 90 % 1017.6 hPa 0.0 l/m 0.8 km/h (0 Bft) SW 0.00 h 0 W/m -4.9 C -3.5 C 2.4 km/h (1 Bft)
04.12.2010 01:00 -3.7 C 92 % 1018.1 hPa 0.0 l/m 1.1 km/h (1 Bft) SO 0.00 h 0 W/m -4.8 C -3.7 C 2.3 km/h (1 Bft)
04.12.2010 02:00 -4.1 C 92 % 1018.5 hPa 0.0 l/m 2.6 km/h (1 Bft) SO 0.00 h 0 W/m -5.3 C -4.3 C 4.0 km/h (1 Bft)
04.12.2010 03:00 -4.0 C 93 % 1019.1 hPa 0.0 l/m 1.3 km/h (1 Bft) O 0.00 h 0 W/m -5.0 C -4.0 C 2.4 km/h (1 Bft)
04.12.2010 04:00 -4.1 C 93 % 1019.3 hPa 0.0 l/m 0.5 km/h (0 Bft) O 0.00 h 0 W/m -5.0 C -4.1 C 1.0 km/h (0 Bft)
04.12.2010 05:00 -4.9 C 93 % 1019.8 hPa 0.0 l/m 3.5 km/h (1 Bft) O-SO 0.00 h 0 W/m -5.8 C -5.4 C 4.8 km/h (1 Bft)
04.12.2010 06:00 -4.9 C 94 % 1020.5 hPa 0.0 l/m 2.8 km/h (1 Bft) O-SO 0.00 h 0 W/m -5.7 C -4.9 C 3.9 km/h (1 Bft)
04.12.2010 07:00 -4.4 C 94 % 1020.9 hPa 0.0 l/m 2.6 km/h (1 Bft) SO 0.00 h 0 W/m -5.2 C -4.8 C 4.0 km/h (1 Bft)
04.12.2010 08:00 -4.1 C 94 % 1021.4 hPa 0.0 l/m 1.5 km/h (1 Bft) O-SO 0.28 h 37 W/m -5.0 C -4.1 C 2.9 km/h (1 Bft)
04.12.2010 09:00 -3.2 C 92 % 1022.0 hPa 0.0 l/m 1.5 km/h (1 Bft) O-SO 0.55 h 107 W/m -4.3 C -3.3 C 2.6 km/h (1 Bft)
04.12.2010 10:00 -2.7 C 92 % 1022.3 hPa 0.0 l/m 1.3 km/h (1 Bft) O-SO 0.00 h 105 W/m -3.9 C -2.7 C 2.3 km/h (1 Bft)
04.12.2010 11:00 -1.9 C 90 % 1022.3 hPa 0.0 l/m 0.3 km/h (0 Bft) O-SO 0.00 h 142 W/m -3.4 C -1.9 C 1.1 km/h (1 Bft)
04.12.2010 12:00 -1.6 C 88 % 1022.3 hPa 0.0 l/m 1.8 km/h (1 Bft) N-NW 0.28 h 159 W/m -3.3 C -1.7 C 3.6 km/h (1 Bft)
04.12.2010 13:00 -1.7 C 88 % 1021.5 hPa 0.0 l/m 2.1 km/h (1 Bft) O 0.22 h 142 W/m -3.4 C -2.0 C 3.3 km/h (1 Bft)
04.12.2010 14:00 -0.7 C 83 % 1021.1 hPa 0.0 l/m 0.7 km/h (0 Bft) W-NW 0.67 h 160 W/m -3.3 C -0.8 C 1.4 km/h (1 Bft)
04.12.2010 15:00 -0.7 C 83 % 1021.2 hPa 0.0 l/m 1.2 km/h (1 Bft) W-NW 0.77 h 77 W/m -3.2 C -0.7 C 3.0 km/h (1 Bft)
04.12.2010 16:00 -2.7 C 87 % 1021.6 hPa 0.0 l/m 1.0 km/h (0 Bft) W-NW 0.00 h 16 W/m -4.6 C -2.7 C 1.4 km/h (1 Bft)
04.12.2010 17:00 -3.8 C 88 % 1022.2 hPa 0.0 l/m 4.9 km/h (1 Bft) O-SO 0.00 h 0 W/m -5.5 C -5.5 C 6.6 km/h (2 Bft)
04.12.2010 18:00 -4.9 C 89 % 1022.5 hPa 0.0 l/m 3.9 km/h (1 Bft) O-SO 0.00 h 0 W/m -6.4 C -6.2 C 5.3 km/h (1 Bft)
04.12.2010 19:00 -5.6 C 90 % 1022.6 hPa 0.0 l/m 1.1 km/h (1 Bft) O-SO 0.00 h 0 W/m -6.9 C -5.8 C 1.9 km/h (1 Bft)
04.12.2010 20:00 -6.5 C 92 % 1022.4 hPa 0.0 l/m 1.0 km/h (0 Bft) O-SO 0.00 h 0 W/m -7.6 C -6.6 C 1.9 km/h (1 Bft)
04.12.2010 21:00 -6.9 C 93 % 1021.7 hPa 0.0 l/m 0.9 km/h (0 Bft) O-SO 0.00 h 0 W/m -7.8 C -6.9 C 1.5 km/h (1 Bft)
04.12.2010 22:00 -6.9 C 94 % 1021.6 hPa 0.0 l/m 0.3 km/h (0 Bft) O-SO 0.00 h 0 W/m -7.7 C -6.9 C 0.8 km/h (0 Bft)
04.12.2010 23:00 -6.9 C 94 % 1021.5 hPa 0.0 l/m 0.9 km/h (0 Bft) O-SO 0.00 h 0 W/m -7.7 C -6.9 C 1.5 km/h (1 Bft)
05.12.2010 00:00 -6.8 C 94 % 1020.9 hPa 0.0 l/m 0.4 km/h (0 Bft) O-SO 0.00 h 0 W/m -7.6 C -6.8 C 0.6 km/h (0 Bft)
05.12.2010 01:00 -6.8 C 94 % 1020.2 hPa 0.0 l/m 0.4 km/h (0 Bft) O-SO 0.00 h 0 W/m -7.5 C -6.8 C 0.8 km/h (0 Bft)
05.12.2010 02:00 -6.8 C 94 % 1019.5 hPa 0.0 l/m 0.3 km/h (0 Bft) O-SO 0.00 h 0 W/m -7.6 C -6.8 C 0.8 km/h (0 Bft)
05.12.2010 03:00 -6.7 C 95 % 1018.9 hPa 0.0 l/m 0.0 km/h (0 Bft) N 0.00 h 0 W/m -7.4 C -6.7 C 0.3 km/h (0 Bft)
05.12.2010 04:00 -6.7 C 94 % 1018.2 hPa 0.0 l/m 0.0 km/h (0 Bft) O-SO 0.00 h 0 W/m -7.4 C -6.7 C 0.1 km/h (0 Bft)
05.12.2010 05:00 -6.6 C 94 % 1017.4 hPa 0.0 l/m 0.2 km/h (0 Bft) O-SO 0.00 h 0 W/m -7.3 C -6.6 C 0.6 km/h (0 Bft)
05.12.2010 06:00 -6.4 C 95 % 1016.6 hPa 0.0 l/m 0.2 km/h (0 Bft) O-SO 0.00 h 0 W/m -7.1 C -6.4 C 0.4 km/h (0 Bft)
05.12.2010 07:00 -6.2 C 95 % 1015.8 hPa 0.0 l/m 0.4 km/h (0 Bft) O-SO 0.00 h 0 W/m -6.9 C -6.3 C 0.9 km/h (0 Bft)
05.12.2010 08:00 -5.8 C 95 % 1015.4 hPa 0.0 l/m 0.2 km/h (0 Bft) O-SO 0.00 h 18 W/m -6.5 C -5.8 C 0.7 km/h (0 Bft)
05.12.2010 09:00 -4.9 C 96 % 1014.9 hPa 0.0 l/m 0.6 km/h (0 Bft) O-SO 0.00 h 64 W/m -5.5 C -5.0 C 1.4 km/h (1 Bft)
05.12.2010 10:00 -3.2 C 92 % 1014.1 hPa 0.0 l/m 1.0 km/h (0 Bft) NO 0.00 h 91 W/m -4.2 C -3.2 C 2.6 km/h (1 Bft)
05.12.2010 11:00 -1.8 C 85 % 1013.5 hPa 0.0 l/m 0.5 km/h (0 Bft) SO 0.00 h 133 W/m -4.0 C -1.8 C 1.8 km/h (1 Bft)
05.12.2010 12:00 -1.0 C 84 % 1012.6 hPa 0.0 l/m 0.5 km/h (0 Bft) N-NW 0.00 h 106 W/m -3.3 C -1.0 C 2.0 km/h (1 Bft)
05.12.2010 13:00 -0.5 C 82 % 1011.9 hPa 0.0 l/m 0.9 km/h (0 Bft) O 0.00 h 80 W/m -3.1 C -0.5 C 2.0 km/h (1 Bft)
05.12.2010 14:00 0.2 C 80 % 1010.8 hPa 0.0 l/m 2.1 km/h (1 Bft) O-SO 0.00 h 68 W/m -2.9 C -0.1 C 3.8 km/h (1 Bft)
05.12.2010 15:00 0.6 C 82 % 1009.9 hPa 0.0 l/m 0.4 km/h (0 Bft) O 0.00 h 18 W/m -2.2 C 0.6 C 1.3 km/h (1 Bft)
05.12.2010 16:00 -0.3 C 88 % 1009.5 hPa 0.0 l/m 0.4 km/h (0 Bft) S-SW 0.00 h 5 W/m -2.1 C -0.3 C 1.5 km/h (1 Bft)
05.12.2010 17:00 -0.7 C 93 % 1008.9 hPa 0.0 l/m 1.5 km/h (1 Bft) W-NW 0.00 h 0 W/m -1.7 C -0.7 C 3.4 km/h (1 Bft)
05.12.2010 18:00 -0.7 C 95 % 1008.6 hPa 0.0 l/m 1.0 km/h (0 Bft) W-NW 0.00 h 0 W/m -1.4 C -0.8 C 2.0 km/h (1 Bft)
05.12.2010 19:00 -0.7 C 96 % 1008.3 hPa 0.2 l/m 3.7 km/h (1 Bft) O-SO 0.00 h 0 W/m -1.3 C -1.4 C 5.0 km/h (1 Bft)
05.12.2010 20:00 -0.4 C 97 % 1007.9 hPa 0.0 l/m 0.1 km/h (0 Bft) O-SO 0.00 h 0 W/m -0.9 C -0.4 C 0.7 km/h (0 Bft)
05.12.2010 21:00 0.2 C 97 % 1007.4 hPa 0.6 l/m 0.1 km/h (0 Bft) O-SO 0.00 h 0 W/m -0.2 C 0.2 C 0.5 km/h (0 Bft)
05.12.2010 22:00 0.4 C 97 % 1006.6 hPa 0.8 l/m 0.0 km/h (0 Bft) N 0.00 h 0 W/m -0.0 C 0.4 C 0.0 km/h (0 Bft)
05.12.2010 23:00 0.4 C 97 % 1005.9 hPa 1.0 l/m 0.0 km/h (0 Bft) N 0.00 h 0 W/m -0.0 C 0.4 C 0.0 km/h (0 Bft)
Min-Datum _ 02.12.10 02.12.10 01.12.10 - 29.11.10 - - - 02.12.10 02.12.10 29.11.10
_ Min-Zeit 23:17 14:33 13:30 - 00:00 - - - 23:17 23:43 00:00
Minimum _ -9.7 C 74 % 996.5 hPa - 0.0 km/h (0 Bft) - - - -10.7 C -14.0 C 0.0 km/h (0 Bft)
Max-Datum _ 29.11.10 03.12.10 04.12.10 05.12.10 29.11.10 - 29.11.10 30.11.10 29.11.10 29.11.10 29.11.10
_ Max-Zeit 15:00 02:31 18:00 23:02 11:21 - 13:46 12:27 09:21 14:39 11:09
Maximum _ 2.2 C 100 % 1022.8 hPa 1.0 l/m 19.6 km/h
W (3 Bft)
- 0.02 h 376 W/m 0.3 C 1.9 C 27.8 km/h
W (4 Bft)
Durchschnitt _ -3.1 C 90 % 1009.8 hPa #7.4 l/m 2.5 km/h (1 Bft) O-SO #10:12 h 84 W/m -4.5 C -3.7 C 4.3 km/h (1 Bft)
© Kaiko 2010